Time;durP1;ratioP1;P1;durP2;ratioP2;P2;SDS_P1;SDS_P2;PMS_P1;PMS_P2;Temp;Humidity;BMP_temperature;BMP_pressure;BME280_temperature;BME280_humidity;BME280_pressure;Samples;Min_cycle;Max_cycle;Signal;HPM_P1;HPM_P2
2022/09/10 00:02:05;;;;;;;17.23;9.78;;;;;;;16.92;87.34;95377.19;1713448;83;21024;-62
2022/09/10 00:04:32;;;;;;;15.18;9.25;;;;;;;16.85;87.10;95376.12;1713560;83;20960;-62
2022/09/10 00:06:59;;;;;;;14.53;9.38;;;;;;;16.90;87.83;95377.24;1713190;84;21139;-62
2022/09/10 00:09:26;;;;;;;18.80;9.25;;;;;;;16.95;87.64;95379.70;1713153;84;21068;-63
2022/09/10 00:11:53;;;;;;;11.93;9.03;;;;;;;16.91;86.93;95377.66;1713131;84;21012;-63
2022/09/10 00:14:23;;;;;;;15.03;8.53;;;;;;;16.82;86.61;95376.27;1713289;84;21067;-63
2022/09/10 00:16:50;;;;;;;16.35;8.78;;;;;;;16.73;86.65;95370.02;1713351;83;21525;-63
2022/09/10 00:19:18;;;;;;;14.33;8.90;;;;;;;16.72;87.08;95366.94;1712891;83;21083;-63
2022/09/10 00:21:45;;;;;;;12.98;9.15;;;;;;;16.70;87.38;95368.81;1713503;84;21040;-63
2022/09/10 00:24:12;;;;;;;12.23;9.13;;;;;;;16.69;87.03;95370.23;1713487;84;21470;-63
2022/09/10 00:26:39;;;;;;;15.50;9.73;;;;;;;16.66;87.02;95360.58;1712825;84;21079;-62
2022/09/10 00:29:10;;;;;;;16.50;10.68;;;;;;;16.66;87.02;95361.44;1713360;84;21537;-62
2022/09/10 00:31:38;;;;;;;14.75;10.48;;;;;;;16.69;86.97;95363.57;1713619;84;21483;-62
2022/09/10 00:34:06;;;;;;;11.85;9.28;;;;;;;16.66;87.40;95360.11;1713150;84;21047;-62
2022/09/10 00:36:39;;;;;;;16.77;9.75;;;;;;;16.70;87.67;95358.63;1713404;83;21032;-62
2022/09/10 00:39:10;;;;;;;15.58;8.88;;;;;;;16.78;87.90;95350.72;1713559;83;21513;-62
2022/09/10 00:41:40;;;;;;;15.15;9.25;;;;;;;16.78;87.66;95345.84;1713260;83;21513;-62
2022/09/10 00:44:40;;;;;;;13.58;10.10;;;;;;;16.85;88.01;95341.95;1709697;84;21558;-62
2022/09/10 00:47:25;;;;;;;21.48;10.10;;;;;;;16.86;87.41;95335.70;1705067;84;21056;-63
2022/09/10 00:50:04;;;;;;;14.80;9.45;;;;;;;16.86;87.01;95336.56;1705211;84;21068;-63
2022/09/10 00:52:32;;;;;;;15.10;9.55;;;;;;;16.81;87.13;95341.72;1695374;84;21040;-63
2022/09/10 00:54:59;;;;;;;15.60;10.08;;;;;;;16.76;87.48;95332.58;1705441;84;21032;-63
2022/09/10 00:57:28;;;;;;;12.82;9.45;;;;;;;16.78;87.69;95323.19;1705349;84;21035;-63
2022/09/10 01:00:03;;;;;;;10.65;7.92;;;;;;;16.75;87.46;95321.50;1705335;84;21016;-63
2022/09/10 01:02:30;;;;;;;13.90;7.87;;;;;;;16.66;86.87;95329.47;1705353;84;21036;-63
2022/09/10 01:04:57;;;;;;;15.72;8.40;;;;;;;16.68;87.34;95328.05;1705168;84;21012;-62
2022/09/10 01:07:28;;;;;;;12.75;8.83;;;;;;;16.73;87.66;95319.84;1705405;84;21526;-62
2022/09/10 01:10:07;;;;;;;16.02;8.88;;;;;;;16.70;87.15;95316.86;1705320;83;21608;-62
2022/09/10 01:12:45;;;;;;;13.00;9.10;;;;;;;16.62;87.10;95323.88;1705646;84;21087;-62
2022/09/10 01:15:27;;;;;;;11.93;7.87;;;;;;;16.56;87.97;95317.99;1704676;84;21047;-62
2022/09/10 01:18:14;;;;;;;10.75;6.87;;;;;;;16.57;88.12;95317.05;1704997;84;21150;-62
2022/09/10 01:20:58;;;;;;;9.15;6.30;;;;;;;16.58;87.86;95316.98;1705527;84;21529;-62
2022/09/10 01:24:00;;;;;;;12.18;6.28;;;;;;;16.69;88.27;95304.96;1705360;83;21048;-62
2022/09/10 01:26:41;;;;;;;12.47;6.75;;;;;;;16.79;88.05;95307.14;1705298;84;21079;-63
2022/09/10 01:29:26;;;;;;;10.05;6.47;;;;;;;16.78;87.37;95304.54;1705400;84;21024;-63
2022/09/10 01:32:14;;;;;;;11.85;7.22;;;;;;;16.75;86.51;95297.52;1705495;83;21511;-63
2022/09/10 01:35:03;;;;;;;15.28;7.05;;;;;;;16.72;87.19;95301.67;1705240;84;21533;-63
2022/09/10 01:37:32;;;;;;;18.10;7.25;;;;;;;16.77;87.33;95301.46;1705747;83;21461;-63
2022/09/10 01:40:04;;;;;;;14.68;6.53;;;;;;;16.73;86.99;95287.88;1705167;84;21747;-64
2022/09/10 01:42:33;;;;;;;14.63;7.35;;;;;;;16.71;86.90;95291.97;1705358;83;21082;-63
2022/09/10 01:45:00;;;;;;;7.90;6.45;;;;;;;16.65;86.73;95288.24;1705238;84;21099;-62
2022/09/10 01:47:58;;;;;;;13.15;6.75;;;;;;;16.63;87.09;95295.44;1705219;83;21048;-62
2022/09/10 01:50:45;;;;;;;9.13;7.28;;;;;;;16.59;86.62;95303.20;1704870;84;21076;-62
2022/09/10 01:53:44;;;;;;;13.68;6.28;;;;;;;16.52;87.17;95293.76;1705478;83;21032;-62
2022/09/10 01:56:25;;;;;;;11.53;6.00;;;;;;;16.48;87.12;95297.48;1705357;83;20985;-62
2022/09/10 01:59:02;;;;;;;10.63;7.65;;;;;;;16.45;87.27;95294.50;1705404;83;21047;-62
2022/09/10 02:01:47;;;;;;;11.48;6.90;;;;;;;16.48;87.02;95287.72;1703945;84;21545;-62
2022/09/10 02:04:17;;;;;;;11.73;7.28;;;;;;;16.52;87.33;95281.77;1704993;84;21029;-63
2022/09/10 02:06:47;;;;;;;10.75;7.05;;;;;;;16.57;87.70;95282.42;1705446;84;21063;-63
2022/09/10 02:09:15;;;;;;;11.75;6.90;;;;;;;16.62;87.61;95279.07;1705261;84;21135;-63
2022/09/10 02:11:49;;;;;;;16.07;7.33;;;;;;;16.68;87.68;95272.11;1705707;84;21007;-63
2022/09/10 02:14:20;;;;;;;6.67;6.00;;;;;;;16.73;87.37;95266.56;1700020;84;20996;-64
2022/09/10 02:16:57;;;;;;;12.10;6.95;;;;;;;16.62;86.38;95270.61;1703234;84;21056;-63
2022/09/10 02:19:25;;;;;;;15.00;7.03;;;;;;;16.47;86.35;95266.00;1685673;84;21379;-63
2022/09/10 02:21:55;;;;;;;11.00;6.60;;;;;;;16.40;87.39;95272.55;1705440;83;21043;-63
2022/09/10 02:24:22;;;;;;;17.12;6.70;;;;;;;16.46;87.85;95268.76;1705429;84;21139;-63
2022/09/10 02:26:49;;;;;;;16.90;6.87;;;;;;;16.52;88.03;95265.80;1705307;83;21036;-63
2022/09/10 02:29:18;;;;;;;14.87;6.75;;;;;;;16.58;88.01;95270.38;1705412;83;21024;-63
2022/09/10 02:31:46;;;;;;;9.25;6.35;;;;;;;16.62;87.90;95277.74;1705314;83;21529;-63
2022/09/10 02:34:14;;;;;;;13.40;6.90;;;;;;;16.60;87.02;95279.61;1705472;84;21032;-63
2022/09/10 02:36:42;;;;;;;10.88;7.00;;;;;;;16.57;86.86;95276.63;1705468;83;21450;-63
2022/09/10 02:39:09;;;;;;;9.75;7.17;;;;;;;16.47;86.48;95262.01;1705177;84;21028;-63
2022/09/10 02:41:39;;;;;;;11.35;7.67;;;;;;;16.48;87.62;95261.09;1705341;83;20993;-63
2022/09/10 02:44:04;;;;;;;13.05;7.03;;;;;;;16.48;87.70;95259.77;1706645;83;21173;-63
2022/09/10 02:46:31;;;;;;;11.10;7.42;;;;;;;16.49;87.68;95268.13;1713200;84;21561;-63
2022/09/10 02:48:58;;;;;;;9.80;6.58;;;;;;;16.45;87.68;95274.53;1713625;83;21008;-63
2022/09/10 02:51:25;;;;;;;12.15;6.80;;;;;;;16.46;87.90;95268.76;1713485;83;21516;-63
2022/09/10 02:53:52;;;;;;;10.28;5.72;;;;;;;16.44;88.04;95269.67;1713278;83;21505;-63
2022/09/10 02:56:19;;;;;;;9.48;6.08;;;;;;;16.46;87.81;95272.75;1713556;83;21011;-63
2022/09/10 02:58:45;;;;;;;13.22;6.00;;;;;;;16.44;87.82;95267.48;1713522;83;21055;-63
2022/09/10 03:01:17;;;;;;;10.25;6.42;;;;;;;16.41;88.42;95251.19;1713034;83;21019;-63
2022/09/10 03:03:57;;;;;;;12.03;6.62;;;;;;;16.46;88.48;95254.97;1713284;84;21525;-63
2022/09/10 03:06:25;;;;;;;11.78;5.80;;;;;;;16.48;88.32;95250.44;1713441;83;21055;-63
2022/09/10 03:08:54;;;;;;;10.82;5.50;;;;;;;16.52;88.24;95252.48;1713274;83;21027;-63
2022/09/10 03:11:22;;;;;;;9.55;5.00;;;;;;;16.48;87.90;95255.77;1713215;84;21064;-63
2022/09/10 03:13:50;;;;;;;8.65;5.22;;;;;;;16.43;87.91;95249.80;1713272;84;20984;-63
2022/09/10 03:16:18;;;;;;;8.33;5.17;;;;;;;16.36;87.71;95239.89;1713607;83;21035;-63
2022/09/10 03:18:46;;;;;;;8.50;5.22;;;;;;;16.28;88.09;95222.53;1713211;83;21047;-63
2022/09/10 03:21:20;;;;;;;9.50;5.97;;;;;;;16.32;89.04;95210.81;1713035;84;21032;-63
2022/09/10 03:23:49;;;;;;;7.33;5.08;;;;;;;16.39;88.52;95216.25;1713365;84;21035;-63
2022/09/10 03:26:20;;;;;;;6.53;5.22;;;;;;;16.34;88.11;95235.58;1712891;84;21063;-63
2022/09/10 03:28:47;;;;;;;11.73;7.00;;;;;;;16.27;88.47;95226.14;1713172;84;21557;-63
2022/09/10 03:31:15;;;;;;;10.20;6.00;;;;;;;16.23;88.79;95220.97;1713473;83;21003;-63
2022/09/10 03:33:45;;;;;;;5.70;5.05;;;;;;;16.27;89.21;95225.67;1713595;84;21090;-63
2022/09/10 03:36:16;;;;;;;8.78;5.17;;;;;;;16.35;89.48;95226.16;1713334;83;20996;-64
2022/09/10 03:38:44;;;;;;;7.37;5.55;;;;;;;16.40;89.29;95220.19;1713452;83;21545;-63
2022/09/10 03:41:10;;;;;;;10.50;4.90;;;;;;;16.48;89.41;95222.92;1713378;83;20972;-63
2022/09/10 03:43:37;;;;;;;7.22;4.97;;;;;;;16.52;89.17;95209.87;1713214;83;21083;-63
2022/09/10 03:46:06;;;;;;;5.35;4.33;;;;;;;16.48;88.78;95199.84;1706300;84;21613;-63
2022/09/10 03:48:34;;;;;;;8.38;4.45;;;;;;;16.42;88.63;95194.31;1705606;83;21103;-63
2022/09/10 03:51:01;;;;;;;6.45;5.20;;;;;;;16.39;88.57;95191.81;1705483;83;20972;-63
2022/09/10 03:53:28;;;;;;;7.15;5.08;;;;;;;16.37;88.70;95197.67;1705586;84;21035;-63
2022/09/10 03:55:55;;;;;;;8.48;5.25;;;;;;;16.40;88.76;95194.00;1705451;83;21012;-63
2022/09/10 03:58:22;;;;;;;7.00;4.40;;;;;;;16.40;89.05;95194.89;1705265;83;21020;-63
2022/09/10 04:00:49;;;;;;;5.95;4.83;;;;;;;16.34;88.95;95197.83;1705653;84;21637;-63
2022/09/10 04:03:18;;;;;;;7.78;5.25;;;;;;;16.36;88.87;95205.27;1705385;83;21454;-64
2022/09/10 04:05:45;;;;;;;7.78;5.05;;;;;;;16.42;89.19;95219.62;1705833;83;21020;-63
2022/09/10 04:08:14;;;;;;;5.10;4.60;;;;;;;16.51;89.52;95214.34;1705580;84;21020;-63
2022/09/10 04:10:47;;;;;;;12.18;4.95;;;;;;;16.53;89.03;95208.48;1705349;83;21007;-64
2022/09/10 04:13:11;;;;;;;7.15;4.65;;;;;;;16.55;89.04;95207.05;1704701;84;21035;-64
2022/09/10 04:15:38;;;;;;;7.92;4.72;;;;;;;16.57;88.80;95202.05;1705503;84;21509;-63
2022/09/10 04:18:07;;;;;;;5.35;4.50;;;;;;;16.64;89.19;95210.61;1705392;84;21075;-63
2022/09/10 04:20:36;;;;;;;9.40;4.10;;;;;;;16.68;88.90;95202.84;1705511;83;21019;-63
2022/09/10 04:23:05;;;;;;;10.40;4.33;;;;;;;16.66;88.59;95200.28;1705211;84;21124;-63
2022/09/10 04:25:33;;;;;;;10.78;5.05;;;;;;;16.74;89.06;95196.38;1705413;83;21051;-63
2022/09/10 04:28:00;;;;;;;7.22;4.70;;;;;;;16.75;88.39;95202.09;1705318;84;21032;-63
2022/09/10 04:30:28;;;;;;;9.20;4.25;;;;;;;16.70;88.10;95216.11;1705531;84;21004;-63
2022/09/10 04:32:55;;;;;;;12.07;4.33;;;;;;;16.67;88.49;95207.79;1705196;83;21024;-63
2022/09/10 04:35:22;;;;;;;10.85;4.58;;;;;;;16.76;89.21;95198.03;1705422;84;20993;-63
2022/09/10 04:37:48;;;;;;;7.25;4.20;;;;;;;16.86;89.11;95192.67;1705410;84;21532;-64
2022/09/10 04:40:15;;;;;;;9.65;5.30;;;;;;;16.98;89.23;95197.84;1705600;83;21047;-63
2022/09/10 04:42:42;;;;;;;11.30;4.45;;;;;;;17.10;89.18;95196.37;1705178;83;21009;-63
2022/09/10 04:45:10;;;;;;;9.00;4.20;;;;;;;17.16;88.72;95184.08;1705533;83;21095;-64
2022/09/10 04:47:36;;;;;;;8.23;4.65;;;;;;;17.19;87.99;95187.06;1705446;84;21055;-64
2022/09/10 04:50:05;;;;;;;7.90;3.77;;;;;;;17.11;87.27;95174.13;1705741;83;21028;-64
2022/09/10 04:52:33;;;;;;;5.78;3.90;;;;;;;17.11;87.73;95169.23;1685050;84;21087;-63
2022/09/10 04:55:00;;;;;;;12.25;4.45;;;;;;;17.04;87.17;95167.38;1705657;84;21016;-63
2022/09/10 04:57:27;;;;;;;7.42;4.30;;;;;;;16.98;87.30;95164.52;1705320;84;21064;-63
2022/09/10 04:59:54;;;;;;;8.20;4.75;;;;;;;16.96;87.38;95171.76;1705389;83;21019;-63
2022/09/10 05:02:22;;;;;;;7.35;3.87;;;;;;;16.91;87.27;95169.80;1705538;83;21491;-63
2022/09/10 05:04:49;;;;;;;7.53;4.53;;;;;;;16.84;87.31;95163.90;1705425;83;21107;-63
2022/09/10 05:07:16;;;;;;;7.40;4.45;;;;;;;16.82;87.88;95167.10;1705137;84;21044;-63
2022/09/10 05:09:43;;;;;;;9.33;5.05;;;;;;;16.92;88.74;95156.85;1705723;83;21005;-63
2022/09/10 05:12:11;;;;;;;8.58;4.92;;;;;;;17.05;88.83;95153.09;1705288;84;21032;-63
2022/09/10 05:14:38;;;;;;;21.80;12.95;;;;;;;17.18;88.60;95164.84;1705305;84;21012;-63
2022/09/10 05:17:04;;;;;;;16.20;10.55;;;;;;;17.26;88.49;95185.78;1705606;84;21039;-63
2022/09/10 05:19:32;;;;;;;14.53;8.90;;;;;;;17.37;88.71;95170.58;1705437;84;21529;-63
2022/09/10 05:22:01;;;;;;;13.85;9.88;;;;;;;17.38;88.14;95167.81;1705147;84;21525;-63
2022/09/10 05:24:27;;;;;;;9.18;8.18;;;;;;;17.39;88.32;95159.37;1705488;84;20956;-64
2022/09/10 05:26:55;;;;;;;10.53;6.72;;;;;;;17.42;88.48;95151.20;1705412;83;21088;-64
2022/09/10 05:29:22;;;;;;;11.00;6.60;;;;;;;17.48;88.41;95153.05;1705413;83;21032;-64
2022/09/10 05:31:49;;;;;;;8.83;6.28;;;;;;;17.51;87.77;95152.03;1705588;84;21016;-63
2022/09/10 05:34:15;;;;;;;12.05;8.08;;;;;;;17.50;87.43;95159.66;1705263;84;21107;-63
2022/09/10 05:36:43;;;;;;;10.72;7.85;;;;;;;17.58;88.05;95160.58;1705530;83;21031;-63
2022/09/10 05:39:10;;;;;;;9.15;7.72;;;;;;;17.71;88.46;95155.86;1705369;83;21137;-63
2022/09/10 05:41:38;;;;;;;8.23;7.37;;;;;;;17.90;88.28;95153.55;1705500;83;21063;-63
2022/09/10 05:44:05;;;;;;;10.60;7.10;;;;;;;17.86;86.57;95154.17;1705746;83;21024;-63
2022/09/10 05:46:32;;;;;;;8.48;6.65;;;;;;;17.82;87.04;95147.78;1705359;84;21056;-63
2022/09/10 05:49:00;;;;;;;10.25;7.15;;;;;;;17.81;87.19;95149.56;1704724;84;21008;-63
2022/09/10 05:51:29;;;;;;;10.63;7.25;;;;;;;17.80;87.36;95149.66;1705622;84;21064;-63
2022/09/10 05:53:57;;;;;;;8.73;6.37;;;;;;;17.86;87.77;95155.98;1705274;84;21498;-63
2022/09/10 05:56:25;;;;;;;7.35;6.47;;;;;;;17.94;87.82;95146.64;1705336;83;21053;-63
2022/09/10 05:58:52;;;;;;;10.72;6.50;;;;;;;17.95;87.47;95153.69;1704917;84;21025;-63
2022/09/10 06:01:19;;;;;;;8.60;6.08;;;;;;;17.99;87.32;95150.84;1705380;84;21029;-63
2022/09/10 06:03:47;;;;;;;9.10;5.87;;;;;;;17.95;87.13;95148.34;1705327;83;21063;-64
2022/09/10 06:06:14;;;;;;;7.92;5.95;;;;;;;18.00;87.47;95148.58;1705485;84;21046;-64
2022/09/10 06:08:43;;;;;;;8.68;5.50;;;;;;;18.00;87.07;95148.58;1704933;84;21008;-63
2022/09/10 06:11:11;;;;;;;9.30;5.92;;;;;;;17.99;87.19;95137.02;1704789;84;21031;-63
2022/09/10 06:13:41;;;;;;;8.83;5.30;;;;;;;17.96;86.71;95133.19;1704262;84;21065;-63
2022/09/10 06:16:08;;;;;;;11.38;5.08;;;;;;;17.94;87.16;95139.08;1705386;84;21529;-63
2022/09/10 06:18:35;;;;;;;10.63;6.00;;;;;;;18.00;86.66;95129.41;1705537;84;21044;-63
2022/09/10 06:21:09;;;;;;;7.00;5.00;;;;;;;18.06;87.28;95110.38;1705541;84;21063;-63
2022/09/10 06:23:35;;;;;;;6.22;4.67;;;;;;;18.17;86.78;95109.80;1705371;83;21048;-63
2022/09/10 06:26:18;;;;;;;4.33;3.77;;;;;;;18.22;85.50;95114.41;1705521;84;21111;-63
2022/09/10 06:28:48;;;;;;;5.30;4.40;;;;;;;18.26;85.04;95107.92;1705484;83;21044;-63
2022/09/10 06:31:18;;;;;;;7.92;4.78;;;;;;;18.41;85.86;95108.02;1705575;84;20992;-63
2022/09/10 06:33:47;;;;;;;6.90;4.67;;;;;;;18.62;86.60;95113.92;1705545;84;21043;-63
2022/09/10 06:36:16;;;;;;;5.80;4.55;;;;;;;18.82;85.97;95113.65;1705278;84;21116;-63
2022/09/10 06:38:43;;;;;;;6.75;4.55;;;;;;;18.93;86.21;95106.36;1705407;84;21043;-63
2022/09/10 06:41:14;;;;;;;4.83;4.33;;;;;;;19.14;86.39;95101.53;1705635;84;21040;-63
2022/09/10 06:43:43;;;;;;;4.97;4.47;;;;;;;19.33;86.15;95106.16;1705110;84;21005;-64
2022/09/10 06:46:18;;;;;;;5.78;4.47;;;;;;;19.53;85.67;95102.27;1704410;84;21067;-64
2022/09/10 06:48:49;;;;;;;4.65;4.25;;;;;;;19.59;84.24;95099.20;1705335;84;21043;-63
2022/09/10 06:51:17;;;;;;;4.97;4.17;;;;;;;19.54;83.20;95099.11;1705246;84;20988;-64
2022/09/10 06:53:47;;;;;;;5.12;4.62;;;;;;;19.58;83.03;95091.25;1705323;84;21016;-63
2022/09/10 06:56:16;;;;;;;6.17;5.37;;;;;;;19.58;83.13;95090.80;1705405;84;21505;-63
2022/09/10 06:58:44;;;;;;;8.55;5.33;;;;;;;19.64;82.73;95081.52;1705047;83;21629;-63
2022/09/10 07:01:14;;;;;;;6.30;5.70;;;;;;;19.64;81.97;95094.42;1705576;83;20953;-63
2022/09/10 07:03:44;;;;;;;7.33;6.03;;;;;;;19.61;82.29;95098.63;1705709;83;21020;-63
2022/09/10 07:06:15;;;;;;;8.93;6.53;;;;;;;19.66;82.70;95093.86;1705808;83;21520;-63
2022/09/10 07:08:43;;;;;;;7.50;6.47;;;;;;;19.76;83.33;95095.52;1709163;83;21024;-63
2022/09/10 07:11:14;;;;;;;7.55;6.85;;;;;;;19.94;83.16;95100.67;1705590;83;20999;-63
2022/09/10 07:13:45;;;;;;;8.50;7.30;;;;;;;20.14;82.56;95102.94;1705461;83;21070;-63
2022/09/10 07:16:10;;;;;;;7.72;6.80;;;;;;;20.23;80.95;95091.61;1704913;84;21008;-63
2022/09/10 07:18:37;;;;;;;9.55;6.58;;;;;;;20.27;78.81;95098.50;1705599;83;21172;-63
2022/09/10 07:21:10;;;;;;;8.73;6.15;;;;;;;20.37;79.31;95089.39;1705433;84;21497;-64
2022/09/10 07:23:39;;;;;;;8.23;5.95;;;;;;;20.38;79.69;95091.09;1705306;84;21084;-64
2022/09/10 07:26:10;;;;;;;9.78;5.80;;;;;;;20.57;81.01;95092.14;1705631;84;21004;-64
2022/09/10 07:28:41;;;;;;;6.05;5.45;;;;;;;20.82;80.08;95086.00;1685506;84;21532;-64
2022/09/10 07:31:26;;;;;;;7.67;6.03;;;;;;;20.94;79.65;95080.27;1705548;83;21036;-63
2022/09/10 07:33:54;;;;;;;7.75;5.35;;;;;;;21.06;79.35;95075.91;1705539;84;21040;-63
2022/09/10 07:36:21;;;;;;;6.72;6.10;;;;;;;21.18;78.40;95081.30;1705549;83;21504;-63
2022/09/10 07:38:56;;;;;;;6.75;5.37;;;;;;;21.23;78.63;95075.61;1705592;83;21091;-61
2022/09/10 07:41:28;;;;;;;9.38;5.40;;;;;;;21.26;78.37;95067.84;1705251;84;21048;-61
2022/09/10 07:43:54;;;;;;;7.33;5.03;;;;;;;21.28;77.95;95068.11;1705377;84;21043;-61
2022/09/10 07:46:24;;;;;;;6.75;6.05;;;;;;;21.38;77.83;95065.19;1709352;84;21111;-61
2022/09/10 07:48:57;;;;;;;7.55;5.87;;;;;;;21.60;78.39;95076.64;1713130;84;21026;-61
2022/09/10 07:51:27;;;;;;;8.08;6.97;;;;;;;21.77;77.15;95069.20;1685006;84;21023;-61
2022/09/10 07:53:57;;;;;;;9.85;7.20;;;;;;;21.87;74.34;95074.28;1713375;84;21031;-61
2022/09/10 07:56:26;;;;;;;8.08;7.25;;;;;;;21.94;75.29;95074.72;1712605;84;21036;-61
2022/09/10 07:58:55;;;;;;;8.83;7.28;;;;;;;21.92;75.44;95081.53;1713057;84;21035;-62
2022/09/10 08:01:22;;;;;;;8.10;7.22;;;;;;;21.93;75.44;95084.61;1713326;83;20968;-62
2022/09/10 08:03:49;;;;;;;8.45;7.55;;;;;;;21.93;76.09;95092.66;1713330;83;21023;-62
2022/09/10 08:06:18;;;;;;;8.85;7.30;;;;;;;21.96;76.16;95095.62;1713530;84;21008;-62
2022/09/10 08:08:45;;;;;;;7.60;6.90;;;;;;;21.83;75.20;95098.32;1713159;83;21004;-62
2022/09/10 08:11:16;;;;;;;13.78;7.90;;;;;;;21.70;75.44;95102.36;1713049;84;21567;-62
2022/09/10 08:13:47;;;;;;;8.15;7.20;;;;;;;21.63;76.07;95107.78;1713481;84;20996;-61
2022/09/10 08:16:21;;;;;;;8.73;7.87;;;;;;;21.65;75.55;95104.51;1713269;83;21019;-61
2022/09/10 08:18:50;;;;;;;10.35;8.15;;;;;;;21.69;75.99;95099.28;1713372;83;21013;-61
2022/09/10 08:21:18;;;;;;;10.63;7.30;;;;;;;21.72;75.82;95098.20;1713184;84;21048;-61
2022/09/10 08:23:52;;;;;;;9.00;8.05;;;;;;;21.59;71.68;95101.75;1713296;83;21015;-61
2022/09/10 08:26:22;;;;;;;7.28;6.53;;;;;;;21.42;72.90;95119.53;1713358;83;21024;-61
2022/09/10 08:28:51;;;;;;;8.55;7.50;;;;;;;21.22;72.86;95132.94;1713240;84;21071;-61
2022/09/10 08:31:18;;;;;;;8.00;7.22;;;;;;;21.03;73.19;95141.84;1713137;84;21019;-62
2022/09/10 08:33:50;;;;;;;9.98;7.72;;;;;;;20.91;73.89;95141.68;1712907;84;21039;-61
2022/09/10 08:36:18;;;;;;;10.78;8.58;;;;;;;20.88;75.44;95143.72;1713343;83;21013;-61
2022/09/10 08:38:45;;;;;;;8.73;7.83;;;;;;;20.84;76.28;95150.23;1713319;83;21067;-62
2022/09/10 08:41:20;;;;;;;8.88;8.03;;;;;;;20.78;76.99;95162.72;1713391;83;21039;-62
2022/09/10 08:43:58;;;;;;;11.60;8.15;;;;;;;20.55;77.05;95166.42;1712792;84;21028;-61
2022/09/10 08:46:36;;;;;;;11.97;8.10;;;;;;;20.34;79.05;95164.61;1713296;83;21051;-61
2022/09/10 08:49:21;;;;;;;9.70;7.83;;;;;;;20.24;79.23;95171.03;1680546;84;21514;-61
2022/09/10 08:52:12;;;;;;;8.28;7.47;;;;;;;20.10;79.23;95166.53;1712902;84;20981;-61
2022/09/10 08:54:55;;;;;;;9.88;7.80;;;;;;;20.03;79.40;95161.20;1712857;84;21044;-61
2022/09/10 08:57:39;;;;;;;8.78;7.17;;;;;;;20.03;80.08;95158.98;1713662;83;20999;-61
2022/09/10 09:00:11;;;;;;;8.40;7.53;;;;;;;20.04;80.36;95156.22;1713220;83;21520;-61
2022/09/10 09:03:12;;;;;;;10.20;7.27;;;;;;;20.03;80.59;95150.95;1713691;83;21031;-61
2022/09/10 09:05:48;;;;;;;7.97;6.92;;;;;;;20.00;80.59;95145.79;1713228;84;21086;-61
2022/09/10 09:08:26;;;;;;;10.70;8.43;;;;;;;19.99;80.70;95150.78;1713419;83;21027;-61
2022/09/10 09:11:30;;;;;;;9.08;7.80;;;;;;;19.99;80.85;95153.45;1680835;84;21016;-61
2022/09/10 09:14:24;;;;;;;10.85;7.58;;;;;;;19.99;80.53;95144.08;1713174;83;21039;-61
2022/09/10 09:17:15;;;;;;;9.25;8.25;;;;;;;19.87;79.14;95141.20;1713087;84;21035;-62
2022/09/10 09:20:30;;;;;;;9.70;8.23;;;;;;;19.93;80.22;95148.47;1661127;84;21008;-62
2022/09/10 09:23:43;;;;;;;10.53;9.25;;;;;;;20.02;80.74;95148.75;1685163;84;21060;-62
2022/09/10 09:26:12;;;;;;;12.65;8.38;;;;;;;20.19;81.19;95149.03;1713798;83;21004;-61
2022/09/10 09:28:48;;;;;;;10.70;8.93;;;;;;;20.26;78.26;95149.48;1713201;83;21027;-61
2022/09/10 09:31:29;;;;;;;16.25;10.63;;;;;;;20.26;78.10;95137.43;1685243;84;20976;-61
2022/09/10 09:34:18;;;;;;;13.03;11.63;;;;;;;20.31;79.28;95139.36;1712809;84;21036;-61
2022/09/10 09:36:51;;;;;;;13.32;11.68;;;;;;;20.34;79.09;95140.50;1713081;83;21147;-61
2022/09/10 09:39:31;;;;;;;;;;;;;;;20.37;79.35;95150.16;1687883;84;21011;-61
2022/09/10 09:42:20;;;;;;;13.20;11.85;;;;;;;20.46;78.56;95153.56;1713173;84;20150;-61
2022/09/10 09:45:16;;;;;;;15.58;11.55;;;;;;;20.47;78.05;95159.33;1713375;84;21039;-61
2022/09/10 09:47:48;;;;;;;11.45;9.08;;;;;;;20.51;78.43;95159.03;1706902;83;21060;-61
2022/09/10 09:50:19;;;;;;;9.50;7.12;;;;;;;20.67;77.81;95158.92;1705609;83;21012;-61
2022/09/10 09:52:46;;;;;;;9.73;7.65;;;;;;;20.71;76.33;95160.45;1705433;84;21059;-62
2022/09/10 09:55:27;;;;;;;9.93;6.83;;;;;;;20.59;75.49;95159.02;1705252;84;20993;-62
2022/09/10 09:58:25;;;;;;;8.10;6.15;;;;;;;20.51;76.12;95166.19;1705619;83;21004;-62
2022/09/10 10:01:07;;;;;;;7.72;6.08;;;;;;;20.30;75.88;95175.98;1702341;84;21012;-61
2022/09/10 10:03:53;;;;;;;8.55;5.42;;;;;;;20.08;77.15;95176.51;1705578;84;21004;-61
2022/09/10 10:06:25;;;;;;;7.15;5.47;;;;;;;19.77;78.43;95183.37;1705066;84;21518;-61
2022/09/10 10:09:09;;;;;;;6.08;5.47;;;;;;;19.63;78.97;95181.48;1705481;83;21498;-61
2022/09/10 10:11:50;;;;;;;9.13;4.92;;;;;;;19.58;79.00;95177.77;1704727;84;21009;-61
2022/09/10 10:14:25;;;;;;;7.90;5.12;;;;;;;19.53;79.32;95175.86;1705394;84;21565;-61
2022/09/10 10:16:54;;;;;;;5.25;4.25;;;;;;;19.51;79.31;95166.20;1705458;84;21032;-61
2022/09/10 10:19:36;;;;;;;6.15;3.87;;;;;;;19.45;79.16;95167.41;1685395;84;21064;-61
2022/09/10 10:22:24;;;;;;;6.25;4.30;;;;;;;19.41;79.63;95170.76;1705470;83;21004;-61
2022/09/10 10:24:52;;;;;;;9.43;4.35;;;;;;;19.41;79.99;95170.76;1705474;84;20948;-61
2022/09/10 10:27:35;;;;;;;4.97;4.30;;;;;;;19.42;80.77;95160.91;1705412;84;20985;-61
2022/09/10 10:30:15;;;;;;;5.75;4.15;;;;;;;19.36;80.71;95166.16;1704646;84;21012;-61
2022/09/10 10:32:50;;;;;;;5.55;4.17;;;;;;;19.29;80.24;95166.14;1705385;84;21486;-61
2022/09/10 10:35:48;;;;;;;4.50;3.40;;;;;;;19.31;80.57;95172.27;1705916;84;21454;-61
2022/09/10 10:38:31;;;;;;;3.87;3.37;;;;;;;19.30;80.61;95172.34;1705276;84;21131;-61
2022/09/10 10:41:55;;;;;;;4.78;3.10;;;;;;;19.21;80.15;95165.73;1705694;84;21012;-61
2022/09/10 10:44:37;;;;;;;4.17;3.17;;;;;;;19.18;80.61;95162.77;1705021;83;21079;-61
2022/09/10 10:47:29;;;;;;;4.83;2.85;;;;;;;19.31;81.58;95153.54;1705377;84;21024;-61
2022/09/10 10:50:24;;;;;;;4.58;3.50;;;;;;;19.60;82.19;95151.75;1704574;84;21024;-61
2022/09/10 10:53:35;;;;;;;6.25;4.20;;;;;;;20.12;82.57;95161.58;1705433;83;21056;-61
2022/09/10 10:56:28;;;;;;;4.58;3.98;;;;;;;20.34;81.36;95159.74;1705509;84;20984;-61
2022/09/10 10:59:18;;;;;;;;;;;;;;;20.36;80.66;95169.41;1707613;84;21048;-61
2022/09/10 11:02:07;;;;;;;3.85;2.62;;;;;;;20.25;79.59;95162.03;1705226;84;20150;-61
2022/09/10 11:04:52;;;;;;;3.10;2.80;;;;;;;20.14;79.87;95164.54;1705601;83;21483;-61
2022/09/10 11:07:39;;;;;;;3.35;2.42;;;;;;;20.00;79.30;95168.55;1705760;83;21020;-61
2022/09/10 11:10:38;;;;;;;3.27;2.98;;;;;;;19.78;78.43;95170.35;1705724;84;21008;-61
2022/09/10 11:13:22;;;;;;;4.28;2.60;;;;;;;19.62;79.34;95175.28;1705652;84;21031;-61
2022/09/10 11:16:24;;;;;;;2.33;1.92;;;;;;;19.40;80.50;95178.41;1705597;83;21075;-61
2022/09/10 11:18:56;;;;;;;4.25;1.87;;;;;;;19.21;79.66;95192.48;1705272;84;21139;-61
2022/09/10 11:21:53;;;;;;;2.05;1.47;;;;;;;18.97;79.83;95203.64;1705802;84;20980;-61
2022/09/10 11:24:46;;;;;;;1.55;1.42;;;;;;;18.78;79.74;95197.66;1705524;84;21044;-61
2022/09/10 11:27:32;;;;;;;1.60;1.30;;;;;;;18.65;80.33;95195.23;1705895;84;21015;-61
2022/09/10 11:30:07;;;;;;;2.45;1.30;;;;;;;18.54;79.98;95199.86;1705392;84;21108;-61
2022/09/10 11:33:00;;;;;;;1.60;1.40;;;;;;;18.35;80.95;95199.56;1705109;84;21063;-61
2022/09/10 11:35:38;;;;;;;2.62;1.70;;;;;;;18.35;81.94;95201.38;1705651;84;21560;-61
2022/09/10 11:38:23;;;;;;;1.98;1.40;;;;;;;18.27;81.76;95207.14;1705517;83;21103;-61
2022/09/10 11:41:21;;;;;;;3.80;2.17;;;;;;;18.29;82.84;95206.56;1705461;84;21020;-61
2022/09/10 11:44:02;;;;;;;2.08;1.87;;;;;;;18.29;82.86;95197.69;1705379;84;21017;-61
2022/09/10 11:46:38;;;;;;;2.40;2.02;;;;;;;18.26;83.13;95201.88;1705428;84;21028;-62
2022/09/10 11:49:25;;;;;;;3.12;1.92;;;;;;;18.29;82.93;95187.86;1712169;84;21353;-61
2022/09/10 11:51:52;;;;;;;4.08;2.37;;;;;;;18.34;83.27;95196.52;1713386;83;21060;-61
2022/09/10 11:54:28;;;;;;;4.83;2.50;;;;;;;18.42;83.35;95196.53;1713368;83;21004;-62
2022/09/10 11:57:23;;;;;;;2.58;2.37;;;;;;;18.52;83.53;95198.63;1685049;84;21019;-61
2022/09/10 12:00:16;;;;;;;2.85;2.65;;;;;;;18.73;83.30;95183.66;1713210;84;21039;-61
2022/09/10 12:03:20;;;;;;;2.90;2.30;;;;;;;18.77;82.41;95182.10;1713357;83;21023;-61